Time;durP1;ratioP1;P1;durP2;ratioP2;P2;SDS_P1;SDS_P2;PMS_P1;PMS_P2;Temp;Humidity;BMP_temperature;BMP_pressure;BME280_temperature;BME280_humidity;BME280_pressure;Samples;Min_cycle;Max_cycle;Signal;HPM_P1;HPM_P2
2023/04/10 00:00:58;;;;;;;6.17;5.57;;;8.20;61.10;7.90;97083.00;;;;5021300;28;20241;-81
2023/04/10 00:03:27;;;;;;;5.97;5.37;;;8.20;61.40;7.90;97092.00;;;;5020170;28;20614;-82
2023/04/10 00:05:54;;;;;;;8.07;6.23;;;8.10;61.60;7.90;97085.00;;;;5000921;28;20236;-82
2023/04/10 00:08:22;;;;;;;7.30;6.17;;;8.10;61.80;7.90;97093.00;;;;5024492;28;20201;-82
2023/04/10 00:10:49;;;;;;;7.77;6.47;;;8.00;61.80;7.90;97087.00;;;;5019294;28;20237;-81
2023/04/10 00:13:20;;;;;;;7.10;6.20;;;8.10;62.00;7.90;97085.00;;;;5003993;28;20214;-81
2023/04/10 00:15:49;;;;;;;6.57;5.90;;;8.10;62.10;7.80;97086.00;;;;5017104;28;20784;-82
2023/04/10 00:18:16;;;;;;;6.53;5.93;;;8.00;61.90;7.80;97085.00;;;;5016109;28;20206;-81
2023/04/10 00:20:44;;;;;;;6.87;6.00;;;8.00;61.80;7.70;97087.00;;;;5016822;28;20206;-81
2023/04/10 00:23:12;;;;;;;6.40;5.80;;;8.00;61.80;7.70;97081.00;;;;5001144;28;20656;-82
2023/04/10 00:25:45;;;;;;;6.13;5.47;;;7.90;61.80;7.70;97087.00;;;;5026373;28;20874;-83
2023/04/10 00:28:13;;;;;;;7.23;6.10;;;7.90;61.80;7.60;97080.00;;;;4995788;28;20194;-82
2023/04/10 00:30:40;;;;;;;7.67;6.20;;;7.90;61.80;7.60;97076.00;;;;5014130;28;20621;-82
2023/04/10 00:33:07;;;;;;;5.63;5.13;;;7.80;61.80;7.50;97073.00;;;;5027344;28;20221;-82
2023/04/10 00:35:34;;;;;;;5.93;5.30;;;7.80;61.90;7.50;97063.00;;;;5003288;28;20228;-82
2023/04/10 00:38:05;;;;;;;6.27;5.63;;;7.80;61.90;7.50;97063.00;;;;5025446;28;20285;-82
2023/04/10 00:40:32;;;;;;;6.17;5.57;;;7.80;61.90;7.40;97060.00;;;;5003170;28;20237;-82
2023/04/10 00:43:00;;;;;;;7.93;5.70;;;7.70;61.80;7.40;97054.00;;;;5012032;28;20304;-81
2023/04/10 00:45:27;;;;;;;7.00;6.03;;;7.70;61.90;7.40;97052.00;;;;5021331;28;20205;-81
2023/04/10 00:47:55;;;;;;;6.97;6.13;;;7.70;61.90;7.40;97055.00;;;;5023713;28;20209;-81
2023/04/10 00:50:23;;;;;;;7.03;6.33;;;7.60;62.00;7.30;97048.00;;;;5041616;28;20723;-82
2023/04/10 00:52:52;;;;;;;8.77;6.77;;;7.60;62.30;7.30;97058.00;;;;5025519;28;20309;-82
2023/04/10 00:55:20;;;;;;;8.17;6.83;;;7.60;63.20;7.30;97060.00;;;;5031360;28;20222;-81
2023/04/10 00:57:48;;;;;;;7.20;6.00;;;7.60;62.60;7.30;97054.00;;;;5013645;28;20194;-82
2023/04/10 01:00:17;;;;;;;7.10;5.73;;;7.50;62.70;7.30;97054.00;;;;4990365;28;20747;-82
2023/04/10 01:02:45;;;;;;;7.43;5.90;;;7.50;62.70;7.30;97056.00;;;;5023219;28;20221;-81
2023/04/10 01:05:13;;;;;;;6.43;5.67;;;7.60;63.10;7.30;97060.00;;;;5024412;28;20353;-82
2023/04/10 01:07:57;;;;;;;5.80;5.20;;;7.60;63.10;7.30;97050.00;;;;4983376;28;20229;-81
2023/04/10 01:10:38;;;;;;;6.73;5.80;;;7.50;63.10;7.30;97058.00;;;;4988534;28;20583;-81
2023/04/10 01:13:16;;;;;;;7.70;6.00;;;7.60;63.00;7.20;97052.00;;;;5020806;28;20232;-82
2023/04/10 01:15:56;;;;;;;6.37;5.77;;;7.50;62.80;7.20;97059.00;;;;5027711;28;20313;-81
2023/04/10 01:18:34;;;;;;;6.23;5.43;;;7.50;62.70;7.10;97060.00;;;;5015049;28;20197;-81
2023/04/10 01:21:08;;;;;;;6.33;5.70;;;7.50;62.70;7.10;97062.00;;;;5015729;28;20190;-83
2023/04/10 01:24:21;;;;;;;7.07;6.10;;;7.50;62.80;7.10;97045.00;;;;5024389;28;20218;-82
2023/04/10 01:27:12;;;;;;;6.43;5.73;;;7.40;63.20;7.10;97047.00;;;;5005468;28;20209;-82
2023/04/10 01:29:47;;;;;;;7.83;6.37;;;7.40;63.00;7.10;97042.00;;;;5015897;28;20201;-82
2023/04/10 01:32:22;;;;;;;7.47;6.40;;;7.40;62.70;7.00;97056.00;;;;4996686;28;20206;-82
2023/04/10 01:34:52;;;;;;;8.13;6.27;;;7.40;62.70;7.00;97042.00;;;;5016885;28;20711;-82
2023/04/10 01:37:25;;;;;;;8.33;6.33;;;7.30;62.80;6.90;97036.00;;;;5017664;28;20198;-82
2023/04/10 01:40:00;;;;;;;8.27;7.07;;;7.30;63.00;7.00;97039.00;;;;5018078;28;20194;-81
2023/04/10 01:42:32;;;;;;;7.87;6.70;;;7.30;63.10;7.00;97035.00;;;;5026182;28;20757;-83
2023/04/10 01:45:03;;;;;;;8.80;7.10;;;7.30;63.20;6.90;97041.00;;;;5016437;28;20751;-82
2023/04/10 01:47:31;;;;;;;8.47;6.37;;;7.30;63.20;6.90;97036.00;;;;5017931;28;20281;-82
2023/04/10 01:50:00;;;;;;;8.33;6.60;;;7.20;63.20;6.90;97031.00;;;;5019488;28;20578;-81
2023/04/10 01:52:30;;;;;;;9.07;7.00;;;7.30;63.30;6.90;97025.00;;;;5022658;28;20248;-82
2023/04/10 01:54:59;;;;;;;7.70;6.90;;;7.20;63.20;6.90;97024.00;;;;5008434;28;20308;-82
2023/04/10 01:57:29;;;;;;;9.23;6.73;;;7.20;63.00;6.80;97022.00;;;;5024983;28;20197;-82
2023/04/10 01:59:56;;;;;;;9.93;6.70;;;7.20;63.00;6.80;97019.00;;;;5018285;28;20205;-82
2023/04/10 02:02:25;;;;;;;9.03;6.93;;;7.10;63.10;6.70;97016.00;;;;5018040;28;20218;-82
2023/04/10 02:04:52;;;;;;;8.60;6.83;;;7.10;63.10;6.70;97022.00;;;;5020172;28;20220;-83
2023/04/10 02:07:27;;;;;;;7.87;6.90;;;7.00;63.00;6.70;97020.00;;;;5029324;28;20215;-82
2023/04/10 02:10:02;;;;;;;7.90;7.10;;;7.00;63.30;6.70;97016.00;;;;5037113;28;20696;-81
2023/04/10 02:12:39;;;;;;;8.33;6.80;;;7.00;63.50;6.70;97022.00;;;;5008804;28;20913;-83
2023/04/10 02:15:09;;;;;;;7.90;6.60;;;7.00;63.50;6.70;97010.00;;;;5026176;28;20252;-84
2023/04/10 02:17:42;;;;;;;8.43;6.70;;;7.00;63.50;6.60;97024.00;;;;5025256;28;20209;-82
2023/04/10 02:20:11;;;;;;;7.57;6.77;;;7.00;63.40;6.60;97019.00;;;;5018492;28;20209;-82
2023/04/10 02:22:42;;;;;;;9.13;6.77;;;6.90;63.20;6.60;97026.00;;;;5028605;28;20336;-82
2023/04/10 02:25:11;;;;;;;8.47;6.73;;;6.90;63.10;6.50;97021.00;;;;5027094;28;20206;-82
2023/04/10 02:27:40;;;;;;;9.57;7.13;;;6.90;63.00;6.50;97022.00;;;;5035354;28;20205;-82
2023/04/10 02:30:09;;;;;;;9.90;7.00;;;6.80;63.00;6.40;97017.00;;;;5038071;28;20623;-82
2023/04/10 02:32:38;;;;;;;9.30;6.77;;;6.80;63.20;6.40;97018.00;;;;5030134;28;20312;-81
2023/04/10 02:35:05;;;;;;;8.73;7.03;;;6.80;63.40;6.40;97020.00;;;;5011903;28;20213;-81
2023/04/10 02:37:33;;;;;;;7.83;6.57;;;6.70;63.40;6.40;97023.00;;;;5026330;28;20201;-82
2023/04/10 02:40:00;;;;;;;8.10;6.90;;;6.70;63.40;6.30;97020.00;;;;5001986;28;20194;-81
2023/04/10 02:42:27;;;;;;;9.20;7.07;;;6.70;63.50;6.30;97030.00;;;;5027793;28;20245;-82
2023/04/10 02:44:55;;;;;;;7.97;6.13;;;6.70;63.50;6.30;97022.00;;;;5038596;28;20284;-82
2023/04/10 02:47:22;;;;;;;9.60;6.50;;;6.60;63.40;6.20;97024.00;;;;5007649;28;20228;-82
2023/04/10 02:49:51;;;;;;;7.30;6.30;;;6.60;63.30;6.20;97024.00;;;;5019784;28;20217;-81
2023/04/10 02:52:19;;;;;;;8.83;7.00;;;6.60;63.30;6.20;97024.00;;;;5008058;28;20264;-82
2023/04/10 02:54:46;;;;;;;10.73;7.40;;;6.60;63.30;6.20;97024.00;;;;5021955;28;20225;-82
2023/04/10 02:57:13;;;;;;;8.33;6.13;;;6.50;63.40;6.20;97034.00;;;;5019063;28;20689;-81
2023/04/10 02:59:40;;;;;;;7.57;6.30;;;6.50;63.60;6.10;97033.00;;;;5014943;28;20198;-82
2023/04/10 03:02:08;;;;;;;8.67;7.07;;;6.50;63.70;6.10;97028.00;;;;5020833;28;20604;-82
2023/04/10 03:04:35;;;;;;;8.67;5.93;;;6.50;63.60;6.10;97031.00;;;;4993825;28;20198;-82
2023/04/10 03:07:04;;;;;;;6.83;6.07;;;6.40;63.60;6.10;97036.00;;;;5020322;28;20194;-83
2023/04/10 03:09:31;;;;;;;8.17;6.57;;;6.40;63.50;6.10;97028.00;;;;5012164;28;20613;-81
2023/04/10 03:11:58;;;;;;;9.03;7.47;;;6.40;63.50;6.00;97030.00;;;;5021230;28;20195;-82
2023/04/10 03:14:26;;;;;;;8.27;6.37;;;6.40;63.50;6.00;97028.00;;;;4997701;28;20210;-82
2023/04/10 03:16:53;;;;;;;8.97;6.83;;;6.30;63.40;6.00;97022.00;;;;5019756;28;20439;-81
2023/04/10 03:19:22;;;;;;;7.83;6.70;;;6.30;63.40;5.90;97016.00;;;;5011716;28;20194;-81
2023/04/10 03:21:49;;;;;;;10.07;6.97;;;6.30;63.50;5.90;97014.00;;;;5040241;28;20205;-81
2023/04/10 03:24:17;;;;;;;7.33;6.57;;;6.30;63.40;5.90;97020.00;;;;5021214;28;20228;-81
2023/04/10 03:26:45;;;;;;;8.63;6.57;;;6.20;63.60;5.90;97021.00;;;;5019098;28;20263;-81
2023/04/10 03:29:17;;;;;;;8.63;7.00;;;6.20;63.90;5.90;97018.00;;;;5021102;28;20201;-82
2023/04/10 03:31:44;;;;;;;7.20;6.30;;;6.20;64.00;5.90;97020.00;;;;5029351;28;20666;-83
2023/04/10 03:34:11;;;;;;;8.83;6.87;;;6.20;64.30;5.90;97017.00;;;;5020576;28;20221;-81
2023/04/10 03:36:39;;;;;;;8.87;6.30;;;6.20;64.50;5.90;97014.00;;;;5021870;28;20225;-82
2023/04/10 03:39:06;;;;;;;9.57;6.87;;;6.20;64.50;5.90;97009.00;;;;5026295;28;20197;-81
2023/04/10 03:41:35;;;;;;;8.07;6.80;;;6.20;64.40;5.90;97012.00;;;;5021540;28;20288;-81
2023/04/10 03:44:02;;;;;;;6.77;6.07;;;6.30;64.40;5.90;97010.00;;;;5022139;28;20754;-82
2023/04/10 03:46:29;;;;;;;7.60;6.60;;;6.20;64.30;5.80;97015.00;;;;5023966;28;20216;-82
2023/04/10 03:48:57;;;;;;;7.40;6.60;;;6.20;64.30;5.80;97012.00;;;;5036237;28;20288;-82
2023/04/10 03:51:25;;;;;;;8.07;7.27;;;6.20;64.40;5.80;97017.00;;;;5015506;28;20285;-81
2023/04/10 03:53:52;;;;;;;8.60;7.37;;;6.20;64.50;5.80;97011.00;;;;5024554;28;20222;-82
2023/04/10 03:56:19;;;;;;;9.57;7.47;;;6.20;64.70;5.80;97012.00;;;;5025578;28;20332;-82
2023/04/10 03:58:50;;;;;;;8.50;6.83;;;6.10;64.60;5.80;97012.00;;;;4995968;28;20198;-81
2023/04/10 04:01:17;;;;;;;8.63;7.27;;;6.10;64.70;5.70;97017.00;;;;5012844;28;20216;-81
2023/04/10 04:03:44;;;;;;;7.27;6.53;;;6.10;64.70;5.70;97019.00;;;;5023243;28;20233;-82
2023/04/10 04:06:12;;;;;;;8.37;7.00;;;6.10;64.70;5.70;97012.00;;;;5015128;28;20201;-81
2023/04/10 04:08:39;;;;;;;8.43;7.07;;;6.10;64.70;5.70;97012.00;;;;5006168;28;20200;-81
2023/04/10 04:11:07;;;;;;;10.23;7.77;;;6.10;64.80;5.70;97014.00;;;;5014128;28;20396;-82
2023/04/10 04:13:34;;;;;;;8.80;7.50;;;6.10;64.90;5.70;97009.00;;;;5014163;28;20226;-82
2023/04/10 04:16:03;;;;;;;8.00;7.20;;;6.00;65.00;5.70;97014.00;;;;5026949;28;20217;-81
2023/04/10 04:18:30;;;;;;;9.27;7.53;;;6.00;65.00;5.70;97016.00;;;;5003761;28;20204;-81
2023/04/10 04:20:57;;;;;;;7.93;7.00;;;6.00;65.00;5.70;97007.00;;;;5019930;28;20208;-81
2023/04/10 04:23:25;;;;;;;8.33;6.87;;;6.00;65.00;5.70;97015.00;;;;5022873;28;20222;-81
2023/04/10 04:25:53;;;;;;;7.73;6.57;;;6.00;65.10;5.70;97015.00;;;;5022644;28;20661;-82
2023/04/10 04:28:20;;;;;;;8.10;6.97;;;6.00;65.10;5.70;97014.00;;;;5015024;28;20839;-82
2023/04/10 04:30:48;;;;;;;8.97;6.83;;;6.00;65.00;5.70;97010.00;;;;4997687;28;20204;-81
2023/04/10 04:33:16;;;;;;;8.03;6.57;;;6.00;65.00;5.70;97016.00;;;;5013575;28;20774;-82
2023/04/10 04:35:44;;;;;;;8.30;6.60;;;6.10;65.20;5.70;97021.00;;;;5023243;28;20232;-81
2023/04/10 04:38:11;;;;;;;7.87;7.07;;;6.00;65.10;5.70;97013.00;;;;5023527;28;20245;-80
2023/04/10 04:40:38;;;;;;;7.80;6.80;;;6.00;65.00;5.70;97022.00;;;;5019392;28;20281;-81
2023/04/10 04:43:05;;;;;;;7.33;6.60;;;6.00;65.00;5.70;97021.00;;;;5021602;28;20769;-81
2023/04/10 04:45:34;;;;;;;8.27;6.90;;;6.00;65.00;5.70;97024.00;;;;5021796;28;20208;-81
2023/04/10 04:48:01;;;;;;;8.13;6.80;;;6.00;65.00;5.60;97031.00;;;;5008368;28;20571;-81
2023/04/10 04:50:30;;;;;;;7.77;6.97;;;5.90;65.10;5.60;97024.00;;;;5019646;28;20196;-82
2023/04/10 04:52:59;;;;;;;9.10;7.40;;;6.00;65.20;5.60;97040.00;;;;4998307;28;20222;-81
2023/04/10 04:55:26;;;;;;;8.40;6.63;;;6.00;65.20;5.60;97036.00;;;;4997026;28;20370;-81
2023/04/10 04:57:54;;;;;;;8.70;6.90;;;6.00;65.30;5.60;97039.00;;;;5016669;28;20194;-81
2023/04/10 05:00:21;;;;;;;7.73;6.93;;;6.00;65.40;5.70;97033.00;;;;5026346;28;20208;-81
2023/04/10 05:02:48;;;;;;;8.37;6.80;;;6.00;65.50;5.70;97032.00;;;;5001166;28;20225;-81
2023/04/10 05:05:17;;;;;;;9.73;7.40;;;6.00;65.60;5.70;97028.00;;;;5021878;28;20707;-81
2023/04/10 05:07:48;;;;;;;8.10;7.23;;;6.00;65.70;5.80;97037.00;;;;4995739;28;20229;-81
2023/04/10 05:10:16;;;;;;;9.17;8.17;;;6.00;65.80;5.80;97039.00;;;;5026482;28;20296;-81
2023/04/10 05:12:43;;;;;;;9.13;7.60;;;6.00;65.80;5.80;97036.00;;;;4995975;28;20243;-82
2023/04/10 05:15:11;;;;;;;8.83;7.73;;;6.00;65.80;5.80;97040.00;;;;5001208;28;20201;-82
2023/04/10 05:17:38;;;;;;;8.43;7.57;;;6.00;65.70;5.80;97036.00;;;;5026302;28;20281;-81
2023/04/10 05:20:08;;;;;;;10.30;8.53;;;6.00;65.60;5.80;97031.00;;;;5018193;28;20204;-81
2023/04/10 05:22:35;;;;;;;9.80;8.03;;;6.00;65.70;5.80;97030.00;;;;4992700;28;20598;-81
2023/04/10 05:25:05;;;;;;;9.40;8.10;;;6.10;66.60;5.80;97040.00;;;;5011718;28;20196;-81
2023/04/10 05:27:32;;;;;;;10.47;7.60;;;6.00;65.90;5.80;97033.00;;;;5014235;28;20296;-80
2023/04/10 05:30:00;;;;;;;8.93;7.83;;;6.10;65.90;5.80;97040.00;;;;5014523;28;20633;-82
2023/04/10 05:32:27;;;;;;;8.13;7.10;;;6.10;66.10;5.80;97031.00;;;;5014383;28;20283;-81
2023/04/10 05:34:55;;;;;;;8.53;7.07;;;6.10;66.20;5.90;97034.00;;;;5025860;28;20288;-81
2023/04/10 05:37:23;;;;;;;9.83;7.83;;;6.10;66.30;5.90;97037.00;;;;5034978;28;20223;-80
2023/04/10 05:39:50;;;;;;;9.97;7.50;;;6.10;66.50;5.90;97041.00;;;;5016675;28;20577;-81
2023/04/10 05:42:18;;;;;;;9.30;7.27;;;6.10;66.60;5.90;97042.00;;;;5013610;28;20202;-81
2023/04/10 05:44:46;;;;;;;11.20;8.07;;;6.20;66.80;6.00;97045.00;;;;5015384;28;20194;-81
2023/04/10 05:47:13;;;;;;;10.47;8.87;;;6.20;66.80;6.00;97047.00;;;;5001630;28;20201;-82
2023/04/10 05:49:40;;;;;;;10.47;8.17;;;6.20;66.90;6.10;97045.00;;;;5018735;28;20802;-82
2023/04/10 05:52:07;;;;;;;9.33;7.87;;;6.20;67.00;6.10;97048.00;;;;5016855;28;20285;-82
2023/04/10 05:54:35;;;;;;;8.93;7.20;;;6.30;67.30;6.20;97051.00;;;;5023081;28;20202;-81
2023/04/10 05:57:02;;;;;;;8.70;7.00;;;6.30;67.40;6.20;97043.00;;;;5019939;28;20225;-82
2023/04/10 05:59:30;;;;;;;8.07;6.77;;;6.30;67.40;6.30;97052.00;;;;4994543;28;20209;-82
2023/04/10 06:01:58;;;;;;;9.87;7.67;;;6.40;67.60;6.30;97055.00;;;;5012911;28;20586;-81
2023/04/10 06:04:25;;;;;;;9.73;7.93;;;6.40;67.60;6.40;97061.00;;;;5001511;28;20236;-81
2023/04/10 06:06:52;;;;;;;8.80;7.77;;;6.50;67.80;6.40;97058.00;;;;5016402;28;20212;-81
2023/04/10 06:09:20;;;;;;;10.23;8.57;;;6.50;68.00;6.40;97064.00;;;;4994735;28;20212;-81
2023/04/10 06:11:47;;;;;;;9.53;7.97;;;6.60;68.20;6.50;97061.00;;;;5017655;28;20619;-82
2023/04/10 06:14:14;;;;;;;10.50;7.93;;;6.60;68.40;6.50;97060.00;;;;5021366;28;20299;-81
2023/04/10 06:16:43;;;;;;;10.73;7.97;;;6.60;68.50;6.60;97072.00;;;;5019861;28;20284;-81
2023/04/10 06:19:11;;;;;;;9.97;7.60;;;6.70;68.70;6.70;97073.00;;;;5017551;28;20202;-81
2023/04/10 06:21:38;;;;;;;9.23;7.13;;;6.80;68.70;6.80;97076.00;;;;5021457;28;20202;-81
2023/04/10 06:24:06;;;;;;;9.10;7.67;;;6.80;68.70;6.80;97070.00;;;;5012324;28;20224;-81
2023/04/10 06:26:33;;;;;;;9.63;7.47;;;6.80;68.70;6.90;97074.00;;;;5020550;28;20294;-81
2023/04/10 06:29:01;;;;;;;9.20;7.80;;;6.90;68.80;7.00;97070.00;;;;5016703;28;20200;-82
2023/04/10 06:31:28;;;;;;;10.70;8.00;;;7.00;68.90;7.00;97076.00;;;;5022520;28;20255;-81
2023/04/10 06:33:56;;;;;;;10.13;7.87;;;7.10;68.90;7.10;97077.00;;;;5027635;28;20221;-81
2023/04/10 06:36:23;;;;;;;9.83;7.83;;;7.10;69.10;7.10;97077.00;;;;5004475;28;20304;-82
2023/04/10 06:38:51;;;;;;;11.33;8.43;;;7.20;69.20;7.20;97079.00;;;;4983809;28;20202;-83
2023/04/10 06:41:19;;;;;;;9.80;8.17;;;7.30;69.40;7.30;97073.00;;;;4992459;28;20722;-82
2023/04/10 06:43:46;;;;;;;10.13;7.70;;;7.40;69.50;7.40;97059.00;;;;5019573;28;20246;-82
2023/04/10 06:46:14;;;;;;;10.90;8.37;;;7.40;69.60;7.40;97063.00;;;;5030245;28;20202;-81
2023/04/10 06:48:42;;;;;;;8.63;7.37;;;7.50;69.60;7.50;97068.00;;;;5037079;28;20197;-82
2023/04/10 06:51:10;;;;;;;9.63;7.83;;;7.60;69.60;7.60;97063.00;;;;5007634;28;20284;-83
2023/04/10 06:53:37;;;;;;;9.77;7.70;;;7.60;69.70;7.70;97070.00;;;;5024413;28;20300;-82
2023/04/10 06:56:06;;;;;;;9.57;7.43;;;7.70;69.80;7.80;97068.00;;;;5016899;28;20217;-82
2023/04/10 06:58:33;;;;;;;8.43;7.57;;;7.80;69.90;7.90;97064.00;;;;5020878;28;20205;-82
2023/04/10 07:01:03;;;;;;;9.03;7.60;;;7.90;69.90;8.00;97067.00;;;;5021594;28;20267;-82
2023/04/10 07:03:31;;;;;;;8.97;7.77;;;8.00;70.10;8.10;97061.00;;;;5029984;28;20244;-83
2023/04/10 07:05:58;;;;;;;8.50;7.60;;;8.00;70.00;8.10;97060.00;;;;5020508;28;20199;-83
2023/04/10 07:08:27;;;;;;;9.23;7.13;;;8.20;70.30;8.30;97062.00;;;;5029034;28;20198;-82
2023/04/10 07:10:54;;;;;;;9.47;7.60;;;8.30;70.40;8.40;97062.00;;;;5031603;28;20209;-85
2023/04/10 07:13:21;;;;;;;8.53;7.40;;;8.30;70.30;8.50;97072.00;;;;5022731;28;20308;-85
2023/04/10 07:15:48;;;;;;;8.40;7.40;;;8.40;70.30;8.70;97061.00;;;;5033613;28;20284;-84
2023/04/10 07:18:16;;;;;;;7.50;6.70;;;8.60;70.40;8.80;97061.00;;;;5023959;28;20198;-84
2023/04/10 07:20:43;;;;;;;9.07;7.27;;;8.70;70.50;9.00;97061.00;;;;5019946;28;20201;-82
2023/04/10 07:23:10;;;;;;;8.17;7.07;;;8.80;70.70;9.30;97062.00;;;;5016497;28;20313;-81
2023/04/10 07:25:40;;;;;;;8.63;7.30;;;9.00;70.80;9.50;97062.00;;;;5007823;28;20199;-82
2023/04/10 07:28:08;;;;;;;8.47;7.03;;;9.10;70.70;9.70;97075.00;;;;5009963;28;20230;-82
2023/04/10 07:30:35;;;;;;;7.63;6.50;;;9.30;70.50;10.00;97072.00;;;;5025106;28;20284;-82
2023/04/10 07:33:03;;;;;;;8.53;7.63;;;9.50;70.40;10.20;97068.00;;;;5015490;28;20214;-82
2023/04/10 07:35:30;;;;;;;8.93;6.77;;;9.70;70.40;10.50;97074.00;;;;5016502;28;20225;-82
2023/04/10 07:37:57;;;;;;;7.37;6.57;;;9.90;70.30;10.70;97079.00;;;;5027322;28;20308;-83
2023/04/10 07:40:24;;;;;;;7.30;6.17;;;10.10;70.20;10.90;97082.00;;;;5029912;28;20205;-82
2023/04/10 07:42:53;;;;;;;6.87;6.17;;;10.30;69.90;11.20;97084.00;;;;5015855;28;20778;-81
2023/04/10 07:45:20;;;;;;;6.37;5.77;;;10.50;69.50;11.40;97084.00;;;;5017536;28;20285;-81
2023/04/10 07:47:47;;;;;;;7.00;6.30;;;10.70;70.10;11.60;97083.00;;;;5017062;28;20214;-83
2023/04/10 07:50:15;;;;;;;6.90;6.20;;;10.90;69.70;11.80;97086.00;;;;4998925;28;20198;-81
2023/04/10 07:52:42;;;;;;;6.47;5.80;;;11.10;68.80;12.10;97080.00;;;;5017771;28;20285;-81
2023/04/10 07:55:10;;;;;;;6.10;5.50;;;11.40;68.80;12.30;97088.00;;;;5017853;28;20210;-81
2023/04/10 07:57:37;;;;;;;7.10;6.40;;;11.60;68.60;12.50;97087.00;;;;5025246;28;20229;-80
2023/04/10 08:00:11;;;;;;;6.53;5.83;;;11.80;68.40;12.70;97091.00;;;;5013602;28;20218;-82
2023/04/10 08:02:39;;;;;;;7.80;6.13;;;12.00;67.90;13.00;97089.00;;;;5024056;28;20221;-82
2023/04/10 08:05:07;;;;;;;6.80;6.10;;;12.20;67.80;13.20;97092.00;;;;5021375;28;20251;-80
2023/04/10 08:07:35;;;;;;;5.73;5.10;;;12.40;67.10;13.40;97081.00;;;;5020201;28;20289;-81
2023/04/10 08:10:03;;;;;;;6.20;5.60;;;12.60;66.30;13.60;97090.00;;;;5015771;28;20198;-81
2023/04/10 08:12:32;;;;;;;6.37;5.77;;;12.80;65.90;13.80;97089.00;;;;5019284;28;20690;-81
2023/04/10 08:14:59;;;;;;;5.93;5.43;;;13.00;65.40;14.10;97090.00;;;;5017437;28;20289;-80
2023/04/10 08:17:29;;;;;;;5.77;5.27;;;13.30;65.10;14.30;97084.00;;;;5004787;28;20221;-80
2023/04/10 08:19:56;;;;;;;6.67;5.63;;;13.50;64.40;14.50;97091.00;;;;5017640;28;20206;-81
2023/04/10 08:22:23;;;;;;;6.00;5.43;;;13.70;63.70;14.70;97097.00;;;;5015892;28;20217;-80
2023/04/10 08:24:51;;;;;;;6.37;5.77;;;13.90;63.20;14.80;97095.00;;;;5028145;28;20669;-80
2023/04/10 08:27:18;;;;;;;5.80;5.20;;;14.00;62.70;15.10;97098.00;;;;5024143;28;20257;-81
2023/04/10 08:29:45;;;;;;;5.63;5.13;;;14.20;62.70;15.30;97101.00;;;;5016020;28;20197;-80
2023/04/10 08:32:12;;;;;;;5.43;4.93;;;14.40;62.60;15.50;97096.00;;;;5037711;28;20249;-81
2023/04/10 08:34:41;;;;;;;5.93;5.43;;;14.60;62.50;15.70;97093.00;;;;5035600;28;20198;-81
2023/04/10 08:37:11;;;;;;;6.20;5.60;;;14.80;62.40;16.00;97094.00;;;;5030722;28;20668;-82
2023/04/10 08:39:39;;;;;;;5.60;5.13;;;15.00;62.30;16.20;97096.00;;;;5024925;28;20202;-82
2023/04/10 08:42:07;;;;;;;6.27;5.67;;;15.20;61.80;16.50;97096.00;;;;5015408;28;20233;-82
2023/04/10 08:44:35;;;;;;;5.83;5.33;;;15.40;60.60;16.70;97102.00;;;;5034498;28;20224;-83
2023/04/10 08:47:04;;;;;;;5.67;5.17;;;15.50;59.80;16.80;97101.00;;;;5025680;28;20884;-81
2023/04/10 08:49:41;;;;;;;5.80;5.30;;;15.70;59.30;17.00;97101.00;;;;5001148;28;20205;-81
2023/04/10 08:52:15;;;;;;;6.70;5.90;;;15.90;59.60;17.20;97094.00;;;;5009355;28;20782;-81
2023/04/10 08:54:48;;;;;;;5.03;4.63;;;16.10;58.80;17.40;97097.00;;;;5023746;28;20197;-81
2023/04/10 08:57:19;;;;;;;5.90;5.40;;;16.20;58.90;17.60;97097.00;;;;5035724;28;20777;-82
2023/04/10 08:59:47;;;;;;;5.40;4.90;;;16.40;58.70;17.80;97095.00;;;;5008540;28;20209;-82
2023/04/10 09:02:14;;;;;;;5.20;4.70;;;16.60;58.60;18.00;97092.00;;;;5017430;28;20204;-81
2023/04/10 09:04:48;;;;;;;5.23;4.73;;;16.70;58.40;18.20;97093.00;;;;5035451;28;20304;-82
2023/04/10 09:07:18;;;;;;;5.10;4.70;;;16.90;58.00;18.40;97097.00;;;;5024453;28;20224;-81
2023/04/10 09:09:45;;;;;;;4.53;4.17;;;17.10;57.70;18.60;97099.00;;;;5021509;28;20718;-81
2023/04/10 09:12:14;;;;;;;5.30;4.80;;;17.30;57.60;18.80;97096.00;;;;5005425;28;20284;-81
2023/04/10 09:14:43;;;;;;;5.33;4.43;;;17.50;57.10;18.90;97098.00;;;;5026528;28;20198;-80
2023/04/10 09:17:18;;;;;;;4.80;4.43;;;17.60;56.60;19.10;97096.00;;;;5025124;28;20308;-81
2023/04/10 09:19:47;;;;;;;4.50;4.20;;;17.80;56.10;19.30;97098.00;;;;5017352;28;20228;-81
2023/04/10 09:22:17;;;;;;;4.60;4.20;;;18.00;55.90;19.40;97099.00;;;;5016757;28;20239;-82
2023/04/10 09:24:46;;;;;;;4.93;4.40;;;18.10;55.00;19.50;97093.00;;;;5017206;28;20229;-80
2023/04/10 09:27:31;;;;;;;6.47;3.80;;;18.20;54.30;19.60;97084.00;;;;5016307;28;20288;-81
2023/04/10 09:30:00;;;;;;;4.73;4.33;;;18.40;53.80;19.80;97095.00;;;;5019409;28;20224;-81
2023/04/10 09:32:40;;;;;;;4.00;3.60;;;18.50;54.30;20.00;97087.00;;;;4998495;28;20756;-80
2023/04/10 09:35:10;;;;;;;4.70;4.30;;;18.70;53.20;20.30;97089.00;;;;5015768;28;20752;-81
2023/04/10 09:37:41;;;;;;;4.07;3.77;;;18.80;53.10;20.50;97081.00;;;;5024074;28;20703;-81
2023/04/10 09:40:22;;;;;;;4.50;4.10;;;19.00;52.30;20.60;97089.00;;;;4990130;28;20240;-82
2023/04/10 09:42:50;;;;;;;4.10;3.80;;;19.10;52.30;20.90;97083.00;;;;4995643;28;20273;-79
2023/04/10 09:45:18;;;;;;;4.13;3.83;;;19.30;52.80;21.10;97075.00;;;;5014201;28;20320;-82
2023/04/10 09:48:03;;;;;;;4.10;3.80;;;19.40;52.00;21.30;97076.00;;;;5005491;28;20584;-80
2023/04/10 09:50:36;;;;;;;3.83;3.53;;;19.60;50.50;21.40;97077.00;;;;4996843;28;20291;-81
2023/04/10 09:53:04;;;;;;;3.63;3.40;;;19.70;50.80;21.60;97075.00;;;;5016827;28;20206;-81
2023/04/10 09:55:32;;;;;;;3.90;3.60;;;19.90;51.20;21.80;97065.00;;;;5017273;28;20198;-78
2023/04/10 09:58:01;;;;;;;4.33;3.93;;;20.10;51.00;22.00;97059.00;;;;5028688;28;20225;-81
2023/04/10 10:00:29;;;;;;;4.10;3.80;;;20.30;51.00;22.20;97067.00;;;;5033228;28;20848;-81
2023/04/10 10:02:59;;;;;;;4.10;3.80;;;20.60;51.40;22.40;97057.00;;;;5029244;28;20217;-82
2023/04/10 10:05:30;;;;;;;4.60;4.13;;;20.80;50.90;22.60;97062.00;;;;5023645;28;20301;-82
2023/04/10 10:07:58;;;;;;;4.30;4.00;;;21.10;50.60;22.70;97061.00;;;;5020911;28;20665;-81
2023/04/10 10:10:26;;;;;;;4.10;3.80;;;21.30;50.40;22.80;97063.00;;;;5031295;28;20208;-80
2023/04/10 10:13:00;;;;;;;3.63;3.33;;;21.50;50.10;22.90;97060.00;;;;5018212;28;20313;-81
2023/04/10 10:15:39;;;;;;;4.20;3.90;;;21.70;49.50;23.00;97060.00;;;;5019852;28;20367;-81
2023/04/10 10:18:15;;;;;;;4.00;3.70;;;21.90;49.20;23.20;97056.00;;;;5018012;28;20232;-81
2023/04/10 10:20:46;;;;;;;4.03;3.73;;;22.10;49.10;23.30;97050.00;;;;5034887;28;20286;-82
2023/04/10 10:23:16;;;;;;;3.50;3.20;;;22.30;48.90;23.40;97046.00;;;;5030823;28;20359;-80
2023/04/10 10:25:45;;;;;;;3.93;3.63;;;22.50;47.90;23.30;97039.00;;;;5021140;28;20222;-80
2023/04/10 10:28:14;;;;;;;4.37;3.97;;;22.60;47.20;23.20;97037.00;;;;5000800;28;20202;-81
2023/04/10 10:30:42;;;;;;;3.93;3.57;;;22.60;46.70;23.20;97037.00;;;;5017558;28;20202;-81
2023/04/10 10:33:12;;;;;;;3.83;3.53;;;22.70;47.00;23.20;97045.00;;;;5016161;28;20217;-82
2023/04/10 10:35:41;;;;;;;4.10;3.80;;;22.70;46.50;23.20;97037.00;;;;5022903;28;20222;-81
2023/04/10 10:38:09;;;;;;;4.60;4.20;;;22.70;46.30;23.20;97034.00;;;;5020821;28;20221;-80
2023/04/10 10:40:52;;;;;;;3.90;3.60;;;22.70;46.20;23.10;97025.00;;;;5020606;28;20293;-80
2023/04/10 10:43:34;;;;;;;4.27;3.90;;;22.70;45.60;23.10;97021.00;;;;5003724;28;20219;-80
2023/04/10 10:46:07;;;;;;;4.03;3.70;;;22.80;45.40;23.00;97020.00;;;;5017879;28;20682;-80
2023/04/10 10:48:34;;;;;;;4.20;3.90;;;22.70;44.40;22.80;97014.00;;;;4999927;28;20201;-78
2023/04/10 10:51:02;;;;;;;4.30;3.93;;;22.60;44.20;22.70;97012.00;;;;5018712;28;20628;-78
2023/04/10 10:53:39;;;;;;;3.90;3.60;;;22.50;44.30;22.50;97002.00;;;;5026763;28;20603;-78
2023/04/10 10:56:36;;;;;;;4.63;4.23;;;22.30;43.50;22.30;97004.00;;;;5009069;28;20201;-79
2023/04/10 10:59:04;;;;;;;4.03;3.73;;;22.10;43.30;22.00;96993.00;;;;5018521;28;20311;-79
2023/04/10 11:01:31;;;;;;;3.70;3.40;;;21.90;43.90;21.80;96996.00;;;;5019378;28;20198;-78
2023/04/10 11:04:00;;;;;;;3.70;3.40;;;21.70;43.90;21.60;96996.00;;;;5027963;28;20253;-79
2023/04/10 11:07:01;;;;;;;3.40;3.10;;;21.50;43.50;21.30;96984.00;;;;5007240;28;20204;-79
2023/04/10 11:09:50;;;;;;;3.40;3.20;;;21.30;42.60;21.00;96978.00;;;;5021359;28;20204;-80
2023/04/10 11:12:22;;;;;;;3.27;3.07;;;21.00;42.80;20.80;96976.00;;;;5015039;28;20266;-79
2023/04/10 11:15:00;;;;;;;3.70;3.40;;;20.70;43.70;20.50;96967.00;;;;4999593;28;20239;-79